sensor_id;sensor_type;location;lat;lon;timestamp;P1;durP1;ratioP1;P2;durP2;ratioP2
15061;SDS011;7630;50.306;8.566;2022-10-19T00:01:06;50.17;;;35.13;;
15061;SDS011;7630;50.306;8.566;2022-10-19T00:05:16;59.00;;;32.53;;
15061;SDS011;7630;50.306;8.566;2022-10-19T00:09:18;41.33;;;28.57;;
15061;SDS011;7630;50.306;8.566;2022-10-19T00:13:19;41.47;;;29.97;;
15061;SDS011;7630;50.306;8.566;2022-10-19T00:17:20;41.43;;;27.93;;
15061;SDS011;7630;50.306;8.566;2022-10-19T00:21:22;39.83;;;27.47;;
15061;SDS011;7630;50.306;8.566;2022-10-19T00:25:23;37.50;;;26.13;;
15061;SDS011;7630;50.306;8.566;2022-10-19T00:29:24;38.10;;;27.53;;
15061;SDS011;7630;50.306;8.566;2022-10-19T00:33:25;33.77;;;26.10;;
15061;SDS011;7630;50.306;8.566;2022-10-19T00:37:26;35.80;;;27.20;;
15061;SDS011;7630;50.306;8.566;2022-10-19T00:41:29;28.93;;;24.20;;
15061;SDS011;7630;50.306;8.566;2022-10-19T00:45:32;36.03;;;25.97;;
15061;SDS011;7630;50.306;8.566;2022-10-19T00:49:34;41.87;;;29.80;;
15061;SDS011;7630;50.306;8.566;2022-10-19T00:53:37;40.73;;;29.87;;
15061;SDS011;7630;50.306;8.566;2022-10-19T00:57:39;28.97;;;23.27;;
15061;SDS011;7630;50.306;8.566;2022-10-19T01:01:41;30.90;;;22.87;;
15061;SDS011;7630;50.306;8.566;2022-10-19T01:05:44;36.70;;;26.10;;
15061;SDS011;7630;50.306;8.566;2022-10-19T01:09:45;30.80;;;22.40;;
15061;SDS011;7630;50.306;8.566;2022-10-19T01:18:43;30.40;;;25.33;;
15061;SDS011;7630;50.306;8.566;2022-10-19T01:36:08;27.40;;;23.13;;
15061;SDS011;7630;50.306;8.566;2022-10-19T01:40:11;46.77;;;25.37;;
15061;SDS011;7630;50.306;8.566;2022-10-19T01:48:32;23.97;;;21.23;;
15061;SDS011;7630;50.306;8.566;2022-10-19T01:52:36;29.43;;;21.73;;
15061;SDS011;7630;50.306;8.566;2022-10-19T01:56:40;23.97;;;20.33;;
15061;SDS011;7630;50.306;8.566;2022-10-19T02:00:44;30.17;;;20.40;;
15061;SDS011;7630;50.306;8.566;2022-10-19T02:04:48;22.57;;;19.77;;
15061;SDS011;7630;50.306;8.566;2022-10-19T02:08:51;27.03;;;17.87;;
15061;SDS011;7630;50.306;8.566;2022-10-19T02:12:53;28.37;;;19.07;;
15061;SDS011;7630;50.306;8.566;2022-10-19T02:17:00;24.97;;;19.50;;
15061;SDS011;7630;50.306;8.566;2022-10-19T02:21:13;30.50;;;21.97;;
15061;SDS011;7630;50.306;8.566;2022-10-19T02:25:15;30.37;;;23.33;;
15061;SDS011;7630;50.306;8.566;2022-10-19T02:29:16;30.57;;;21.90;;
15061;SDS011;7630;50.306;8.566;2022-10-19T02:33:17;31.23;;;21.00;;
15061;SDS011;7630;50.306;8.566;2022-10-19T02:37:19;38.63;;;19.40;;
15061;SDS011;7630;50.306;8.566;2022-10-19T02:45:34;27.60;;;20.87;;
15061;SDS011;7630;50.306;8.566;2022-10-19T02:49:37;24.23;;;19.07;;
15061;SDS011;7630;50.306;8.566;2022-10-19T02:53:39;28.80;;;21.63;;
15061;SDS011;7630;50.306;8.566;2022-10-19T02:57:40;29.03;;;22.07;;
15061;SDS011;7630;50.306;8.566;2022-10-19T03:01:41;33.20;;;22.90;;
15061;SDS011;7630;50.306;8.566;2022-10-19T03:05:42;29.67;;;21.13;;
15061;SDS011;7630;50.306;8.566;2022-10-19T03:09:43;24.17;;;18.63;;
15061;SDS011;7630;50.306;8.566;2022-10-19T03:13:44;29.83;;;22.70;;
15061;SDS011;7630;50.306;8.566;2022-10-19T03:17:45;28.43;;;23.73;;
15061;SDS011;7630;50.306;8.566;2022-10-19T03:21:46;31.13;;;18.40;;
15061;SDS011;7630;50.306;8.566;2022-10-19T03:25:47;72.60;;;17.70;;
15061;SDS011;7630;50.306;8.566;2022-10-19T03:29:48;20.40;;;18.17;;
15061;SDS011;7630;50.306;8.566;2022-10-19T03:33:49;15.53;;;14.03;;
15061;SDS011;7630;50.306;8.566;2022-10-19T03:37:50;15.67;;;14.27;;
15061;SDS011;7630;50.306;8.566;2022-10-19T03:41:51;52.00;;;19.50;;
15061;SDS011;7630;50.306;8.566;2022-10-19T03:45:52;137.67;;;27.20;;
15061;SDS011;7630;50.306;8.566;2022-10-19T03:49:53;21.77;;;19.57;;
15061;SDS011;7630;50.306;8.566;2022-10-19T03:53:56;136.07;;;25.13;;
15061;SDS011;7630;50.306;8.566;2022-10-19T03:57:58;71.43;;;23.23;;
15061;SDS011;7630;50.306;8.566;2022-10-19T04:01:59;98.17;;;26.67;;
15061;SDS011;7630;50.306;8.566;2022-10-19T04:06:08;25.40;;;22.20;;
15061;SDS011;7630;50.306;8.566;2022-10-19T04:10:11;46.77;;;25.37;;
15061;SDS011;7630;50.306;8.566;2022-10-19T04:14:12;83.63;;;25.50;;
15061;SDS011;7630;50.306;8.566;2022-10-19T04:18:17;25.90;;;22.33;;
15061;SDS011;7630;50.306;8.566;2022-10-19T04:22:18;28.40;;;20.63;;
15061;SDS011;7630;50.306;8.566;2022-10-19T04:26:19;25.20;;;18.43;;
15061;SDS011;7630;50.306;8.566;2022-10-19T04:30:20;35.57;;;18.40;;
15061;SDS011;7630;50.306;8.566;2022-10-19T04:34:21;29.57;;;21.13;;
15061;SDS011;7630;50.306;8.566;2022-10-19T04:38:22;43.17;;;21.07;;
15061;SDS011;7630;50.306;8.566;2022-10-19T04:42:23;27.93;;;21.83;;
15061;SDS011;7630;50.306;8.566;2022-10-19T04:46:24;37.40;;;23.57;;
15061;SDS011;7630;50.306;8.566;2022-10-19T04:50:26;70.73;;;27.60;;
15061;SDS011;7630;50.306;8.566;2022-10-19T04:54:28;111.03;;;28.17;;
15061;SDS011;7630;50.306;8.566;2022-10-19T04:58:28;50.00;;;24.33;;
15061;SDS011;7630;50.306;8.566;2022-10-19T05:02:29;103.70;;;26.60;;
15061;SDS011;7630;50.306;8.566;2022-10-19T05:06:30;81.57;;;19.83;;
15061;SDS011;7630;50.306;8.566;2022-10-19T05:10:32;65.37;;;20.20;;
15061;SDS011;7630;50.306;8.566;2022-10-19T05:14:33;17.85;;;16.50;;
15061;SDS011;7630;50.306;8.566;2022-10-19T05:18:36;18.83;;;17.30;;
15061;SDS011;7630;50.306;8.566;2022-10-19T05:22:37;68.03;;;19.10;;
15061;SDS011;7630;50.306;8.566;2022-10-19T05:26:39;38.27;;;17.70;;
15061;SDS011;7630;50.306;8.566;2022-10-19T05:30:40;17.97;;;16.37;;
15061;SDS011;7630;50.306;8.566;2022-10-19T05:34:42;27.80;;;17.10;;
15061;SDS011;7630;50.306;8.566;2022-10-19T05:38:44;24.90;;;17.53;;
15061;SDS011;7630;50.306;8.566;2022-10-19T05:42:47;37.57;;;21.07;;
15061;SDS011;7630;50.306;8.566;2022-10-19T05:46:48;42.73;;;21.70;;
15061;SDS011;7630;50.306;8.566;2022-10-19T05:50:51;80.50;;;23.90;;
15061;SDS011;7630;50.306;8.566;2022-10-19T05:54:54;28.53;;;20.63;;
15061;SDS011;7630;50.306;8.566;2022-10-19T05:58:56;26.57;;;20.70;;
15061;SDS011;7630;50.306;8.566;2022-10-19T06:02:59;63.23;;;33.27;;
15061;SDS011;7630;50.306;8.566;2022-10-19T06:07:00;50.67;;;28.87;;
15061;SDS011;7630;50.306;8.566;2022-10-19T06:11:11;47.73;;;42.73;;
15061;SDS011;7630;50.306;8.566;2022-10-19T06:15:14;28.50;;;21.47;;
15061;SDS011;7630;50.306;8.566;2022-10-19T06:19:16;27.27;;;21.80;;
15061;SDS011;7630;50.306;8.566;2022-10-19T06:23:17;27.57;;;20.60;;
15061;SDS011;7630;50.306;8.566;2022-10-19T06:27:18;23.53;;;16.13;;
15061;SDS011;7630;50.306;8.566;2022-10-19T06:31:19;20.30;;;18.30;;
15061;SDS011;7630;50.306;8.566;2022-10-19T06:35:20;20.07;;;17.93;;
15061;SDS011;7630;50.306;8.566;2022-10-19T06:39:22;21.03;;;17.80;;
15061;SDS011;7630;50.306;8.566;2022-10-19T06:43:23;37.20;;;21.00;;
15061;SDS011;7630;50.306;8.566;2022-10-19T06:47:25;34.70;;;21.13;;
15061;SDS011;7630;50.306;8.566;2022-10-19T06:51:28;27.60;;;20.67;;
15061;SDS011;7630;50.306;8.566;2022-10-19T06:55:31;34.03;;;20.67;;
15061;SDS011;7630;50.306;8.566;2022-10-19T06:59:32;31.33;;;20.67;;
15061;SDS011;7630;50.306;8.566;2022-10-19T07:03:34;21.97;;;19.23;;
15061;SDS011;7630;50.306;8.566;2022-10-19T07:07:36;21.97;;;17.87;;
15061;SDS011;7630;50.306;8.566;2022-10-19T07:11:38;28.23;;;17.73;;
15061;SDS011;7630;50.306;8.566;2022-10-19T07:15:41;24.17;;;16.40;;
15061;SDS011;7630;50.306;8.566;2022-10-19T07:19:44;20.00;;;15.47;;
15061;SDS011;7630;50.306;8.566;2022-10-19T07:23:45;23.03;;;17.73;;
15061;SDS011;7630;50.306;8.566;2022-10-19T07:27:47;20.50;;;16.03;;
15061;SDS011;7630;50.306;8.566;2022-10-19T07:31:48;21.13;;;17.53;;
15061;SDS011;7630;50.306;8.566;2022-10-19T07:35:49;27.27;;;17.90;;
15061;SDS011;7630;50.306;8.566;2022-10-19T07:39:50;24.43;;;18.30;;
15061;SDS011;7630;50.306;8.566;2022-10-19T07:43:51;24.90;;;18.57;;
15061;SDS011;7630;50.306;8.566;2022-10-19T07:47:53;27.10;;;19.53;;
15061;SDS011;7630;50.306;8.566;2022-10-19T07:51:54;27.67;;;18.10;;
15061;SDS011;7630;50.306;8.566;2022-10-19T07:56:01;27.10;;;21.87;;
15061;SDS011;7630;50.306;8.566;2022-10-19T08:00:07;24.23;;;21.40;;
15061;SDS011;7630;50.306;8.566;2022-10-19T08:04:10;27.63;;;20.73;;
15061;SDS011;7630;50.306;8.566;2022-10-19T08:08:13;25.13;;;19.80;;
15061;SDS011;7630;50.306;8.566;2022-10-19T08:12:14;33.13;;;21.90;;
15061;SDS011;7630;50.306;8.566;2022-10-19T08:20:24;21.63;;;19.37;;
15061;SDS011;7630;50.306;8.566;2022-10-19T08:24:25;33.70;;;21.23;;
15061;SDS011;7630;50.306;8.566;2022-10-19T08:28:27;25.90;;;18.70;;
15061;SDS011;7630;50.306;8.566;2022-10-19T08:32:28;21.13;;;18.63;;
15061;SDS011;7630;50.306;8.566;2022-10-19T08:36:29;21.53;;;19.27;;
15061;SDS011;7630;50.306;8.566;2022-10-19T08:40:32;26.13;;;18.67;;
15061;SDS011;7630;50.306;8.566;2022-10-19T08:48:55;24.77;;;18.53;;
15061;SDS011;7630;50.306;8.566;2022-10-19T08:53:01;22.53;;;17.20;;
15061;SDS011;7630;50.306;8.566;2022-10-19T09:10:30;18.80;;;16.30;;
15061;SDS011;7630;50.306;8.566;2022-10-19T09:18:36;22.90;;;17.90;;
15061;SDS011;7630;50.306;8.566;2022-10-19T09:22:37;22.67;;;17.40;;
15061;SDS011;7630;50.306;8.566;2022-10-19T09:26:44;24.80;;;17.23;;
15061;SDS011;7630;50.306;8.566;2022-10-19T09:30:51;18.83;;;17.03;;
15061;SDS011;7630;50.306;8.566;2022-10-19T09:34:57;20.37;;;18.27;;
15061;SDS011;7630;50.306;8.566;2022-10-19T09:39:03;20.30;;;18.30;;
15061;SDS011;7630;50.306;8.566;2022-10-19T09:43:09;21.23;;;19.13;;
15061;SDS011;7630;50.306;8.566;2022-10-19T09:47:23;24.10;;;19.20;;
15061;SDS011;7630;50.306;8.566;2022-10-19T09:51:50;22.47;;;18.77;;
15061;SDS011;7630;50.306;8.566;2022-10-19T09:56:02;29.87;;;19.40;;
15061;SDS011;7630;50.306;8.566;2022-10-19T10:00:00;20.57;;;18.57;;
15061;SDS011;7630;50.306;8.566;2022-10-19T10:04:05;19.53;;;17.53;;
15061;SDS011;7630;50.306;8.566;2022-10-19T10:08:14;19.40;;;17.60;;
15061;SDS011;7630;50.306;8.566;2022-10-19T10:12:18;23.10;;;20.43;;
15061;SDS011;7630;50.306;8.566;2022-10-19T10:16:23;24.73;;;18.70;;
15061;SDS011;7630;50.306;8.566;2022-10-19T10:20:27;21.87;;;19.53;;
15061;SDS011;7630;50.306;8.566;2022-10-19T10:24:30;20.93;;;16.23;;
15061;SDS011;7630;50.306;8.566;2022-10-19T10:28:33;24.63;;;18.43;;
15061;SDS011;7630;50.306;8.566;2022-10-19T10:32:40;18.13;;;14.53;;
15061;SDS011;7630;50.306;8.566;2022-10-19T10:36:47;20.97;;;16.20;;
15061;SDS011;7630;50.306;8.566;2022-10-19T10:40:58;16.60;;;15.10;;
15061;SDS011;7630;50.306;8.566;2022-10-19T10:45:05;15.73;;;14.27;;
15061;SDS011;7630;50.306;8.566;2022-10-19T10:49:27;17.43;;;13.20;;
15061;SDS011;7630;50.306;8.566;2022-10-19T10:57:43;13.23;;;11.23;;
15061;SDS011;7630;50.306;8.566;2022-10-19T11:02:09;15.63;;;12.20;;
15061;SDS011;7630;50.306;8.566;2022-10-19T11:06:14;16.47;;;10.97;;
15061;SDS011;7630;50.306;8.566;2022-10-19T11:10:22;11.57;;;9.33;;
15061;SDS011;7630;50.306;8.566;2022-10-19T11:14:57;11.93;;;9.43;;
15061;SDS011;7630;50.306;8.566;2022-10-19T11:36:35;15.33;;;8.47;;
15061;SDS011;7630;50.306;8.566;2022-10-19T11:40:45;9.53;;;8.60;;
15061;SDS011;7630;50.306;8.566;2022-10-19T11:49:30;11.80;;;8.87;;
15061;SDS011;7630;50.306;8.566;2022-10-19T12:15:42;10.70;;;7.87;;
15061;SDS011;7630;50.306;8.566;2022-10-19T12:19:51;13.13;;;9.17;;
15061;SDS011;7630;50.306;8.566;2022-10-19T12:23:51;12.73;;;9.27;;
15061;SDS011;7630;50.306;8.566;2022-10-19T12:27:54;10.67;;;8.70;;
15061;SDS011;7630;50.306;8.566;2022-10-19T12:31:57;11.00;;;8.93;;
15061;SDS011;7630;50.306;8.566;2022-10-19T12:36:04;11.03;;;9.60;;
15061;SDS011;7630;50.306;8.566;2022-10-19T12:40:31;12.67;;;8.73;;
15061;SDS011;7630;50.306;8.566;2022-10-19T12:48:43;12.10;;;9.80;;
15061;SDS011;7630;50.306;8.566;2022-10-19T12:52:45;13.23;;;8.50;;
15061;SDS011;7630;50.306;8.566;2022-10-19T12:56:49;14.97;;;8.40;;
15061;SDS011;7630;50.306;8.566;2022-10-19T13:00:59;14.73;;;11.17;;
15061;SDS011;7630;50.306;8.566;2022-10-19T13:05:04;11.47;;;9.47;;
15061;SDS011;7630;50.306;8.566;2022-10-19T13:09:06;9.07;;;8.10;;
15061;SDS011;7630;50.306;8.566;2022-10-19T13:13:45;11.20;;;7.43;;
15061;SDS011;7630;50.306;8.566;2022-10-19T13:25:47;8.97;;;7.87;;
15061;SDS011;7630;50.306;8.566;2022-10-19T13:29:52;12.77;;;8.37;;
15061;SDS011;7630;50.306;8.566;2022-10-19T13:33:54;10.53;;;7.70;;
15061;SDS011;7630;50.306;8.566;2022-10-19T13:42:22;11.80;;;7.30;;
15061;SDS011;7630;50.306;8.566;2022-10-19T13:50:45;9.73;;;7.93;;
15061;SDS011;7630;50.306;8.566;2022-10-19T13:59:24;9.23;;;8.27;;
15061;SDS011;7630;50.306;8.566;2022-10-19T14:12:25;9.30;;;8.20;;
15061;SDS011;7630;50.306;8.566;2022-10-19T14:16:28;13.23;;;8.20;;
15061;SDS011;7630;50.306;8.566;2022-10-19T14:20:30;10.23;;;7.87;;
15061;SDS011;7630;50.306;8.566;2022-10-19T14:24:34;14.13;;;7.50;;
15061;SDS011;7630;50.306;8.566;2022-10-19T14:28:36;9.77;;;8.77;;
15061;SDS011;7630;50.306;8.566;2022-10-19T14:32:39;10.27;;;8.50;;
15061;SDS011;7630;50.306;8.566;2022-10-19T14:36:45;11.50;;;8.47;;
15061;SDS011;7630;50.306;8.566;2022-10-19T14:40:48;16.47;;;8.00;;
15061;SDS011;7630;50.306;8.566;2022-10-19T14:44:49;9.77;;;7.60;;
15061;SDS011;7630;50.306;8.566;2022-10-19T14:48:50;9.40;;;7.80;;
15061;SDS011;7630;50.306;8.566;2022-10-19T14:53:01;10.10;;;8.23;;
15061;SDS011;7630;50.306;8.566;2022-10-19T14:57:09;11.27;;;7.97;;
15061;SDS011;7630;50.306;8.566;2022-10-19T15:01:16;9.87;;;7.30;;
15061;SDS011;7630;50.306;8.566;2022-10-19T15:05:19;11.33;;;7.23;;
15061;SDS011;7630;50.306;8.566;2022-10-19T15:09:24;13.77;;;8.27;;
15061;SDS011;7630;50.306;8.566;2022-10-19T15:13:39;12.60;;;8.57;;
15061;SDS011;7630;50.306;8.566;2022-10-19T15:17:48;11.50;;;7.17;;
15061;SDS011;7630;50.306;8.566;2022-10-19T15:26:26;10.33;;;5.70;;
15061;SDS011;7630;50.306;8.566;2022-10-19T15:30:30;7.30;;;6.50;;
15061;SDS011;7630;50.306;8.566;2022-10-19T15:34:32;12.70;;;7.17;;
15061;SDS011;7630;50.306;8.566;2022-10-19T15:38:36;13.47;;;6.80;;
15061;SDS011;7630;50.306;8.566;2022-10-19T15:42:40;12.50;;;6.93;;
15061;SDS011;7630;50.306;8.566;2022-10-19T15:50:52;9.27;;;5.77;;
15061;SDS011;7630;50.306;8.566;2022-10-19T15:54:57;14.90;;;6.10;;
15061;SDS011;7630;50.306;8.566;2022-10-19T15:59:00;8.53;;;6.50;;
15061;SDS011;7630;50.306;8.566;2022-10-19T16:03:04;10.73;;;6.43;;
15061;SDS011;7630;50.306;8.566;2022-10-19T16:07:05;7.93;;;5.40;;
15061;SDS011;7630;50.306;8.566;2022-10-19T16:11:10;8.83;;;7.53;;
15061;SDS011;7630;50.306;8.566;2022-10-19T16:15:14;10.87;;;8.97;;
15061;SDS011;7630;50.306;8.566;2022-10-19T16:19:18;10.83;;;8.90;;
15061;SDS011;7630;50.306;8.566;2022-10-19T16:23:19;8.90;;;7.57;;
15061;SDS011;7630;50.306;8.566;2022-10-19T16:27:20;9.30;;;6.67;;
15061;SDS011;7630;50.306;8.566;2022-10-19T16:31:22;10.97;;;7.23;;
15061;SDS011;7630;50.306;8.566;2022-10-19T16:35:23;11.37;;;7.83;;
15061;SDS011;7630;50.306;8.566;2022-10-19T16:39:25;11.07;;;7.47;;
15061;SDS011;7630;50.306;8.566;2022-10-19T16:43:27;9.83;;;7.87;;
15061;SDS011;7630;50.306;8.566;2022-10-19T16:47:29;10.07;;;8.57;;
15061;SDS011;7630;50.306;8.566;2022-10-19T16:51:34;10.57;;;8.90;;
15061;SDS011;7630;50.306;8.566;2022-10-19T16:55:38;13.50;;;11.30;;
15061;SDS011;7630;50.306;8.566;2022-10-19T16:59:40;15.73;;;13.20;;
15061;SDS011;7630;50.306;8.566;2022-10-19T17:03:43;16.47;;;14.87;;
15061;SDS011;7630;50.306;8.566;2022-10-19T17:07:45;18.00;;;16.03;;
15061;SDS011;7630;50.306;8.566;2022-10-19T17:11:46;17.00;;;15.50;;
15061;SDS011;7630;50.306;8.566;2022-10-19T17:15:48;15.20;;;13.70;;
15061;SDS011;7630;50.306;8.566;2022-10-19T17:19:50;15.43;;;13.83;;
15061;SDS011;7630;50.306;8.566;2022-10-19T17:23:51;15.03;;;13.63;;
15061;SDS011;7630;50.306;8.566;2022-10-19T17:27:54;19.77;;;17.73;;
15061;SDS011;7630;50.306;8.566;2022-10-19T17:31:55;17.82;;;16.15;;
15061;SDS011;7630;50.306;8.566;2022-10-19T17:36:04;16.97;;;15.17;;
15061;SDS011;7630;50.306;8.566;2022-10-19T17:40:07;17.67;;;15.83;;
15061;SDS011;7630;50.306;8.566;2022-10-19T17:44:09;19.63;;;16.47;;
15061;SDS011;7630;50.306;8.566;2022-10-19T17:48:11;19.67;;;15.60;;
15061;SDS011;7630;50.306;8.566;2022-10-19T17:52:12;18.33;;;16.50;;
15061;SDS011;7630;50.306;8.566;2022-10-19T17:56:15;16.10;;;14.50;;
15061;SDS011;7630;50.306;8.566;2022-10-19T18:00:19;16.50;;;14.87;;
15061;SDS011;7630;50.306;8.566;2022-10-19T18:04:21;15.53;;;14.03;;
15061;SDS011;7630;50.306;8.566;2022-10-19T18:08:23;17.00;;;15.35;;
15061;SDS011;7630;50.306;8.566;2022-10-19T18:12:24;15.33;;;13.97;;
15061;SDS011;7630;50.306;8.566;2022-10-19T18:20:37;19.13;;;16.43;;
15061;SDS011;7630;50.306;8.566;2022-10-19T18:24:41;18.00;;;16.07;;
15061;SDS011;7630;50.306;8.566;2022-10-19T18:28:42;21.97;;;19.20;;
15061;SDS011;7630;50.306;8.566;2022-10-19T18:32:45;19.87;;;17.97;;
15061;SDS011;7630;50.306;8.566;2022-10-19T18:36:50;20.97;;;16.83;;
15061;SDS011;7630;50.306;8.566;2022-10-19T18:40:52;18.13;;;16.27;;
15061;SDS011;7630;50.306;8.566;2022-10-19T18:44:54;17.13;;;15.37;;
15061;SDS011;7630;50.306;8.566;2022-10-19T18:49:01;18.40;;;16.70;;
15061;SDS011;7630;50.306;8.566;2022-10-19T18:53:07;18.15;;;16.52;;
15061;SDS011;7630;50.306;8.566;2022-10-19T18:57:10;24.37;;;19.33;;
15061;SDS011;7630;50.306;8.566;2022-10-19T19:01:14;18.17;;;16.30;;
15061;SDS011;7630;50.306;8.566;2022-10-19T19:05:17;18.63;;;16.83;;
15061;SDS011;7630;50.306;8.566;2022-10-19T19:09:18;18.70;;;17.00;;
15061;SDS011;7630;50.306;8.566;2022-10-19T19:13:20;18.83;;;17.00;;
15061;SDS011;7630;50.306;8.566;2022-10-19T19:17:21;20.30;;;18.30;;
15061;SDS011;7630;50.306;8.566;2022-10-19T19:21:23;23.20;;;20.93;;
15061;SDS011;7630;50.306;8.566;2022-10-19T19:25:26;20.47;;;18.40;;
15061;SDS011;7630;50.306;8.566;2022-10-19T19:29:28;26.33;;;23.43;;
15061;SDS011;7630;50.306;8.566;2022-10-19T19:33:30;26.77;;;24.30;;
15061;SDS011;7630;50.306;8.566;2022-10-19T19:37:31;21.20;;;19.27;;
15061;SDS011;7630;50.306;8.566;2022-10-19T19:41:35;21.83;;;19.63;;
15061;SDS011;7630;50.306;8.566;2022-10-19T19:45:36;21.40;;;18.57;;
15061;SDS011;7630;50.306;8.566;2022-10-19T19:49:38;21.80;;;19.70;;
15061;SDS011;7630;50.306;8.566;2022-10-19T19:53:40;22.53;;;20.20;;
15061;SDS011;7630;50.306;8.566;2022-10-19T19:57:41;26.17;;;21.80;;
15061;SDS011;7630;50.306;8.566;2022-10-19T20:01:43;23.00;;;20.60;;
15061;SDS011;7630;50.306;8.566;2022-10-19T20:05:45;28.80;;;23.23;;
15061;SDS011;7630;50.306;8.566;2022-10-19T20:09:46;28.03;;;22.93;;
15061;SDS011;7630;50.306;8.566;2022-10-19T20:13:47;26.00;;;22.67;;
15061;SDS011;7630;50.306;8.566;2022-10-19T20:17:49;28.90;;;22.83;;
15061;SDS011;7630;50.306;8.566;2022-10-19T20:21:50;25.97;;;22.00;;
15061;SDS011;7630;50.306;8.566;2022-10-19T20:25:52;24.20;;;21.80;;
15061;SDS011;7630;50.306;8.566;2022-10-19T20:29:56;25.63;;;22.40;;
15061;SDS011;7630;50.306;8.566;2022-10-19T20:33:58;21.57;;;19.07;;
15061;SDS011;7630;50.306;8.566;2022-10-19T20:37:59;27.80;;;23.23;;
15061;SDS011;7630;50.306;8.566;2022-10-19T20:42:00;26.67;;;19.40;;
15061;SDS011;7630;50.306;8.566;2022-10-19T20:46:06;22.93;;;20.43;;
15061;SDS011;7630;50.306;8.566;2022-10-19T20:50:05;22.07;;;19.17;;
15061;SDS011;7630;50.306;8.566;2022-10-19T20:54:11;25.70;;;22.17;;
15061;SDS011;7630;50.306;8.566;2022-10-19T20:58:12;21.47;;;19.37;;
15061;SDS011;7630;50.306;8.566;2022-10-19T21:02:13;24.67;;;19.83;;
15061;SDS011;7630;50.306;8.566;2022-10-19T21:06:14;23.60;;;21.20;;
15061;SDS011;7630;50.306;8.566;2022-10-19T21:10:16;23.53;;;19.13;;
15061;SDS011;7630;50.306;8.566;2022-10-19T21:14:19;22.13;;;19.90;;
15061;SDS011;7630;50.306;8.566;2022-10-19T21:18:23;25.57;;;22.13;;
15061;SDS011;7630;50.306;8.566;2022-10-19T21:22:24;22.43;;;20.17;;
15061;SDS011;7630;50.306;8.566;2022-10-19T21:26:28;23.70;;;18.43;;
15061;SDS011;7630;50.306;8.566;2022-10-19T21:30:30;22.60;;;18.63;;
15061;SDS011;7630;50.306;8.566;2022-10-19T21:34:31;23.07;;;21.03;;
15061;SDS011;7630;50.306;8.566;2022-10-19T21:38:32;25.50;;;23.10;;
15061;SDS011;7630;50.306;8.566;2022-10-19T21:42:34;23.40;;;20.17;;
15061;SDS011;7630;50.306;8.566;2022-10-19T21:46:35;19.80;;;17.73;;
15061;SDS011;7630;50.306;8.566;2022-10-19T21:50:36;20.20;;;17.10;;
15061;SDS011;7630;50.306;8.566;2022-10-19T21:54:37;17.33;;;15.63;;
15061;SDS011;7630;50.306;8.566;2022-10-19T21:58:42;16.30;;;14.00;;
15061;SDS011;7630;50.306;8.566;2022-10-19T22:02:48;15.13;;;13.63;;
15061;SDS011;7630;50.306;8.566;2022-10-19T22:06:49;14.80;;;12.90;;
15061;SDS011;7630;50.306;8.566;2022-10-19T22:10:50;13.97;;;12.67;;
15061;SDS011;7630;50.306;8.566;2022-10-19T22:14:52;18.23;;;12.93;;
15061;SDS011;7630;50.306;8.566;2022-10-19T22:18:54;12.10;;;10.80;;
15061;SDS011;7630;50.306;8.566;2022-10-19T22:22:55;14.63;;;13.20;;
15061;SDS011;7630;50.306;8.566;2022-10-19T22:26:56;12.10;;;10.77;;
15061;SDS011;7630;50.306;8.566;2022-10-19T22:30:57;14.90;;;10.47;;
15061;SDS011;7630;50.306;8.566;2022-10-19T22:34:58;13.90;;;10.60;;
15061;SDS011;7630;50.306;8.566;2022-10-19T22:38:59;12.43;;;11.17;;
15061;SDS011;7630;50.306;8.566;2022-10-19T22:43:00;19.03;;;10.67;;
15061;SDS011;7630;50.306;8.566;2022-10-19T22:47:03;11.97;;;10.10;;
15061;SDS011;7630;50.306;8.566;2022-10-19T22:51:04;15.27;;;11.20;;
15061;SDS011;7630;50.306;8.566;2022-10-19T22:55:06;11.80;;;9.63;;
15061;SDS011;7630;50.306;8.566;2022-10-19T22:59:07;16.13;;;10.37;;
15061;SDS011;7630;50.306;8.566;2022-10-19T23:03:09;17.10;;;10.20;;
15061;SDS011;7630;50.306;8.566;2022-10-19T23:07:10;11.77;;;9.67;;
15061;SDS011;7630;50.306;8.566;2022-10-19T23:11:11;15.90;;;10.63;;
15061;SDS011;7630;50.306;8.566;2022-10-19T23:15:13;10.77;;;9.60;;
15061;SDS011;7630;50.306;8.566;2022-10-19T23:19:14;11.00;;;9.87;;
15061;SDS011;7630;50.306;8.566;2022-10-19T23:23:15;13.03;;;10.10;;
15061;SDS011;7630;50.306;8.566;2022-10-19T23:27:16;10.83;;;9.97;;
15061;SDS011;7630;50.306;8.566;2022-10-19T23:31:21;11.80;;;10.50;;
15061;SDS011;7630;50.306;8.566;2022-10-19T23:35:25;11.67;;;10.53;;
15061;SDS011;7630;50.306;8.566;2022-10-19T23:39:26;12.57;;;11.47;;
15061;SDS011;7630;50.306;8.566;2022-10-19T23:43:27;10.50;;;9.60;;
15061;SDS011;7630;50.306;8.566;2022-10-19T23:47:29;12.30;;;10.97;;
15061;SDS011;7630;50.306;8.566;2022-10-19T23:51:30;13.27;;;11.03;;
15061;SDS011;7630;50.306;8.566;2022-10-19T23:55:31;13.73;;;12.10;;
15061;SDS011;7630;50.306;8.566;2022-10-19T23:59:32;12.60;;;11.13;;
